createdAt,value
2023-10-05T00:01:57.779Z,96071.53
2023-10-05T00:04:28.090Z,96075.81
2023-10-05T00:06:56.120Z,96076.66
2023-10-05T00:09:25.901Z,96079.41
2023-10-05T00:11:56.078Z,96089.78
2023-10-05T00:14:25.473Z,96085.34
2023-10-05T00:16:56.262Z,96073.19
2023-10-05T00:19:26.226Z,96079.28
2023-10-05T00:21:57.775Z,96084.53
2023-10-05T00:24:31.053Z,96081.91
2023-10-05T00:26:59.667Z,96077.47
2023-10-05T00:29:30.090Z,96074.81
2023-10-05T00:32:00.508Z,96077.47
2023-10-05T00:34:29.779Z,96086.16
2023-10-05T00:37:00.158Z,96082.72
2023-10-05T00:39:31.281Z,96085.34
2023-10-05T00:42:09.957Z,96076.66
2023-10-05T00:44:40.762Z,96079.28
2023-10-05T00:47:08.640Z,96078.28
2023-10-05T00:49:46.881Z,96068.59
2023-10-05T00:52:16.616Z,96065.16
2023-10-05T00:54:49.901Z,96068.75
2023-10-05T00:57:20.917Z,96060.88
2023-10-05T00:59:58.852Z,96050.38
2023-10-05T01:02:27.745Z,96058.25
2023-10-05T01:04:57.484Z,96058.25
2023-10-05T01:07:50.846Z,96063.50
2023-10-05T01:10:34.094Z,96046.91
2023-10-05T01:13:02.561Z,96035.56
2023-10-05T01:15:34.513Z,96039.03
2023-10-05T01:18:02.478Z,96037.22
2023-10-05T01:20:32.117Z,96019.78
2023-10-05T01:23:06.034Z,96021.59
2023-10-05T01:25:33.867Z,96012.75
2023-10-05T01:28:02.442Z,96020.63
2023-10-05T01:30:30.181Z,96023.25
2023-10-05T01:32:58.047Z,96032.94
2023-10-05T01:35:27.250Z,96039.84
2023-10-05T01:37:55.183Z,96043.44
2023-10-05T01:40:26.606Z,96038.03
2023-10-05T01:42:54.422Z,96027.69
2023-10-05T01:45:26.455Z,96033.75
2023-10-05T01:47:55.463Z,96036.38
2023-10-05T01:50:24.543Z,96032.94
2023-10-05T01:52:57.688Z,96039.84
2023-10-05T01:55:28.999Z,96045.91
2023-10-05T01:57:57.387Z,96043.28
2023-10-05T02:00:26.560Z,96026.72
2023-10-05T02:02:57.073Z,96030.00
2023-10-05T02:05:25.435Z,96028.34
2023-10-05T02:07:53.110Z,96020.47
2023-10-05T02:10:22.059Z,96025.72
2023-10-05T02:12:55.713Z,96014.38
2023-10-05T02:15:29.774Z,96020.47
2023-10-05T02:17:59.695Z,96018.66
2023-10-05T02:20:45.711Z,96013.41
2023-10-05T02:23:27.153Z,96020.47
2023-10-05T02:25:59.476Z,96006.47
2023-10-05T02:28:28.777Z,96005.69
2023-10-05T02:31:01.075Z,96009.13
2023-10-05T02:33:32.812Z,96005.69
2023-10-05T02:36:11.470Z,96005.69
2023-10-05T02:38:40.874Z,96001.22
2023-10-05T02:41:09.542Z,96005.69
2023-10-05T02:43:41.585Z,96003.84
2023-10-05T02:46:13.392Z,96006.47
2023-10-05T02:48:42.843Z,96006.47
2023-10-05T02:51:14.651Z,96010.09
2023-10-05T02:53:43.301Z,96011.91
2023-10-05T02:56:24.002Z,96010.94
2023-10-05T02:58:55.941Z,96003.06
2023-10-05T03:01:24.607Z,95996.13
2023-10-05T03:03:53.466Z,96005.69
2023-10-05T03:06:23.855Z,96002.22
2023-10-05T03:08:55.352Z,96001.38
2023-10-05T03:11:23.182Z,95996.13
2023-10-05T03:13:51.842Z,95997.94
2023-10-05T03:16:22.998Z,96001.38
2023-10-05T03:18:50.786Z,96005.69
2023-10-05T03:21:19.391Z,96013.69
2023-10-05T03:23:48.218Z,96013.56
2023-10-05T03:26:19.131Z,96012.75
2023-10-05T03:28:47.545Z,96015.38
2023-10-05T03:31:20.429Z,96005.69
2023-10-05T03:33:53.184Z,96011.91
2023-10-05T03:36:21.391Z,96014.53
2023-10-05T03:38:56.993Z,96013.56
2023-10-05T03:41:27.263Z,96006.47
2023-10-05T03:43:56.821Z,96002.22
2023-10-05T03:46:26.269Z,96005.81
2023-10-05T03:49:01.528Z,96008.31
2023-10-05T03:51:30.480Z,96007.47
2023-10-05T03:53:58.202Z,96005.69
2023-10-05T03:56:30.007Z,95997.81
2023-10-05T03:59:01.638Z,95995.16
2023-10-05T04:01:29.718Z,95991.88
2023-10-05T04:04:01.324Z,95990.88
2023-10-05T04:06:29.638Z,95989.09
2023-10-05T04:08:59.103Z,95985.47
2023-10-05T04:11:27.838Z,95995.84
2023-10-05T04:13:56.120Z,95991.53
2023-10-05T04:16:27.999Z,95991.53
2023-10-05T04:18:55.822Z,95985.31
2023-10-05T04:21:24.917Z,95979.91
2023-10-05T04:23:53.933Z,95974.66
2023-10-05T04:26:22.974Z,95981.56
2023-10-05T04:28:58.921Z,95971.84
2023-10-05T04:31:27.446Z,95978.78
2023-10-05T04:33:57.251Z,95985.84
2023-10-05T04:36:27.096Z,95984.88
2023-10-05T04:38:56.208Z,95986.50
2023-10-05T04:41:30.058Z,95990.13
2023-10-05T04:43:58.619Z,95986.50
2023-10-05T04:46:26.514Z,95986.50
2023-10-05T04:49:09.113Z,95992.59
2023-10-05T04:51:40.164Z,95990.97
2023-10-05T04:54:11.877Z,96001.47
2023-10-05T04:56:44.659Z,96004.91
2023-10-05T04:59:38.401Z,95995.38
2023-10-05T05:02:19.522Z,95992.75
2023-10-05T05:05:27.651Z,95993.41
2023-10-05T05:07:56.688Z,95984.69
2023-10-05T05:10:24.599Z,95989.78
2023-10-05T05:12:52.266Z,95982.06
2023-10-05T05:15:20.071Z,95985.53
2023-10-05T05:17:47.786Z,95991.75
2023-10-05T05:20:16.787Z,95977.66
2023-10-05T05:22:47.949Z,95968.94
2023-10-05T05:25:21.074Z,95974.19
2023-10-05T05:27:49.417Z,95979.44
2023-10-05T05:30:25.612Z,95988.16
2023-10-05T05:32:55.717Z,96003.09
2023-10-05T05:35:23.539Z,96008.34
2023-10-05T05:37:51.312Z,96004.78
2023-10-05T05:40:20.400Z,96010.03
2023-10-05T05:42:48.131Z,96020.53
2023-10-05T05:45:18.001Z,96024.97
2023-10-05T05:47:47.327Z,96020.53
2023-10-05T05:50:19.009Z,96024.97
2023-10-05T05:52:48.998Z,96020.66
2023-10-05T05:55:21.848Z,96034.47
2023-10-05T05:57:52.674Z,96028.56
2023-10-05T06:00:21.066Z,96035.47
2023-10-05T06:02:49.032Z,96032.84
2023-10-05T06:05:17.351Z,96027.59
2023-10-05T06:07:45.379Z,96032.84
2023-10-05T06:10:16.352Z,96041.69
2023-10-05T06:12:48.494Z,96047.78
2023-10-05T06:15:17.514Z,96045.16
2023-10-05T06:17:45.935Z,96036.44
2023-10-05T06:20:16.218Z,96031.19
2023-10-05T06:22:46.071Z,96036.44
2023-10-05T06:25:16.121Z,96034.66
2023-10-05T06:27:44.804Z,96034.66
2023-10-05T06:30:12.983Z,96037.28
2023-10-05T06:32:43.999Z,96032.03
2023-10-05T06:35:13.359Z,96027.75
2023-10-05T06:37:42.516Z,96021.66
2023-10-05T06:40:13.862Z,96018.03
2023-10-05T06:42:43.256Z,96008.53
2023-10-05T06:45:13.055Z,96012.78
2023-10-05T06:47:42.290Z,96005.91
2023-10-05T06:50:11.794Z,96010.16
2023-10-05T06:52:40.870Z,96022.34
2023-10-05T06:55:09.845Z,96019.88
2023-10-05T06:57:38.642Z,96006.72
2023-10-05T07:00:13.007Z,96005.72
2023-10-05T07:02:43.161Z,96011.00
2023-10-05T07:05:12.509Z,96017.09
2023-10-05T07:07:42.085Z,96016.25
2023-10-05T07:10:11.265Z,96016.25
2023-10-05T07:12:41.034Z,96011.97
2023-10-05T07:15:09.812Z,96017.09
2023-10-05T07:17:38.635Z,96011.97
2023-10-05T07:20:12.660Z,96007.53
2023-10-05T07:22:41.359Z,96009.34
2023-10-05T07:25:12.002Z,96027.75
2023-10-05T07:27:40.963Z,96036.44
2023-10-05T07:30:10.819Z,96040.91
2023-10-05T07:32:39.122Z,96037.44
2023-10-05T07:35:10.974Z,96039.91
2023-10-05T07:37:38.722Z,96032.03
2023-10-05T07:40:08.977Z,96035.66
2023-10-05T07:42:38.702Z,96033.03
2023-10-05T07:45:08.751Z,96039.06
2023-10-05T07:47:43.083Z,96036.59
2023-10-05T07:50:12.687Z,96035.66
2023-10-05T07:52:40.483Z,96039.91
2023-10-05T07:55:09.468Z,96032.03
2023-10-05T07:57:37.332Z,96043.38
2023-10-05T08:00:07.419Z,96033.81
2023-10-05T08:02:35.287Z,96034.66
2023-10-05T08:05:03.331Z,96044.19
2023-10-05T08:07:32.404Z,96046.84
2023-10-05T08:10:00.763Z,96041.56
2023-10-05T08:12:28.770Z,96045.00
2023-10-05T08:14:56.772Z,96037.94
2023-10-05T08:17:25.672Z,96031.06
2023-10-05T08:19:53.891Z,96038.78
2023-10-05T08:22:23.651Z,96043.22
2023-10-05T08:24:54.114Z,96044.03
2023-10-05T08:27:22.329Z,96058.81
2023-10-05T08:29:49.973Z,96070.16
2023-10-05T08:32:18.096Z,96065.91
2023-10-05T08:34:46.616Z,96069.78
2023-10-05T08:37:21.944Z,96066.22
2023-10-05T08:39:52.540Z,96053.53
2023-10-05T08:42:21.834Z,96062.72
2023-10-05T08:44:50.876Z,96058.56
2023-10-05T08:47:20.412Z,96060.53
2023-10-05T08:49:48.343Z,96067.75
2023-10-05T08:52:20.866Z,96066.13
2023-10-05T08:54:49.565Z,96067.09
2023-10-05T08:57:18.499Z,96071.50
2023-10-05T08:59:47.987Z,96069.88
2023-10-05T09:02:19.907Z,96074.28
2023-10-05T09:04:52.376Z,96080.38
2023-10-05T09:07:35.917Z,96088.28
2023-10-05T09:10:06.609Z,96093.69
2023-10-05T09:12:38.853Z,96101.59
2023-10-05T09:15:16.427Z,96099.63
2023-10-05T09:18:07.567Z,96081.34
2023-10-05T09:20:37.666Z,96097.00
2023-10-05T09:23:07.366Z,96089.91
2023-10-05T09:25:38.638Z,96087.16
2023-10-05T09:28:14.441Z,96081.91
2023-10-05T09:30:56.816Z,96078.13
2023-10-05T09:33:27.858Z,96085.03
2023-10-05T09:35:57.475Z,96071.88
2023-10-05T09:38:25.605Z,96075.06
2023-10-05T09:40:55.703Z,96084.56
2023-10-05T09:43:24.582Z,96086.06
2023-10-05T09:45:54.403Z,96085.09
2023-10-05T09:48:23.860Z,96089.22
2023-10-05T09:50:53.826Z,96083.81
2023-10-05T09:53:21.546Z,96067.88
2023-10-05T09:55:54.521Z,96084.34
2023-10-05T09:58:23.082Z,96084.16
2023-10-05T10:00:51.768Z,96078.78
2023-10-05T10:03:24.620Z,96082.91
2023-10-05T10:06:00.907Z,96088.00
2023-10-05T10:08:30.739Z,96085.22
2023-10-05T10:11:07.737Z,96077.16
2023-10-05T10:13:39.362Z,96086.56
2023-10-05T10:16:22.830Z,96073.41
2023-10-05T10:18:55.883Z,96073.09
2023-10-05T10:21:28.064Z,96074.72
2023-10-05T10:24:02.703Z,96080.69
2023-10-05T10:26:30.628Z,96064.06
2023-10-05T10:29:09.641Z,96064.91
2023-10-05T10:31:44.057Z,96070.31
2023-10-05T10:34:20.761Z,96063.25
2023-10-05T10:36:53.334Z,96065.22
2023-10-05T10:39:25.936Z,96059.13
2023-10-05T10:42:06.003Z,96048.59
2023-10-05T10:44:52.921Z,96054.97
2023-10-05T10:47:23.634Z,96053.34
2023-10-05T10:50:11.620Z,96038.53
2023-10-05T10:52:39.665Z,96051.69
2023-10-05T10:55:15.482Z,96050.19
2023-10-05T10:57:47.953Z,96048.56
2023-10-05T11:00:34.630Z,96032.09
2023-10-05T11:03:10.774Z,96038.31
2023-10-05T11:05:40.453Z,96038.50
2023-10-05T11:08:10.416Z,96028.94
2023-10-05T11:10:38.328Z,96030.75
2023-10-05T11:13:16.214Z,96032.78
2023-10-05T11:15:59.319Z,96023.16
2023-10-05T11:18:28.148Z,96027.81
2023-10-05T11:21:06.774Z,96023.00
2023-10-05T11:23:44.686Z,96027.25
2023-10-05T11:26:20.041Z,96025.06
2023-10-05T11:28:50.296Z,96016.66
2023-10-05T11:31:27.808Z,96009.09
2023-10-05T11:34:36.701Z,96014.34
2023-10-05T11:36:56.281Z,96007.59
2023-10-05T11:39:28.536Z,96013.81
2023-10-05T11:41:58.289Z,96006.09
2023-10-05T11:44:26.610Z,96000.84
2023-10-05T11:46:56.258Z,96016.63
2023-10-05T11:49:32.056Z,96018.28
2023-10-05T11:52:03.975Z,96019.25
2023-10-05T11:54:31.926Z,96021.03
2023-10-05T11:57:02.611Z,96021.72
2023-10-05T11:59:32.286Z,96017.44
2023-10-05T12:02:00.368Z,96008.56
2023-10-05T12:04:28.641Z,96011.06
2023-10-05T12:06:59.886Z,96016.31
2023-10-05T12:09:33.002Z,96003.84
2023-10-05T12:12:02.586Z,96009.19
2023-10-05T12:14:30.362Z,96016.38
2023-10-05T12:17:00.733Z,96016.38
2023-10-05T12:19:30.109Z,96015.41
2023-10-05T12:22:00.561Z,96017.09
2023-10-05T12:24:31.341Z,96012.50
2023-10-05T12:27:01.804Z,96016.75
2023-10-05T12:29:31.032Z,96022.84
2023-10-05T12:32:05.087Z,96024.34
2023-10-05T12:34:33.171Z,96024.03
2023-10-05T12:37:01.909Z,96025.72
2023-10-05T12:39:34.277Z,96026.38
2023-10-05T12:42:02.603Z,96015.69
2023-10-05T12:44:33.307Z,96012.91
2023-10-05T12:47:01.433Z,96015.38
2023-10-05T12:49:29.266Z,96012.59
2023-10-05T12:51:57.463Z,96008.16
2023-10-05T12:54:30.385Z,96017.53
2023-10-05T12:57:21.023Z,96017.38
2023-10-05T12:59:50.964Z,96016.41
2023-10-05T13:02:19.908Z,96015.28
2023-10-05T13:04:47.735Z,96018.69
2023-10-05T13:07:19.273Z,96023.00
2023-10-05T13:09:48.653Z,96029.09
2023-10-05T13:12:21.444Z,96026.28
2023-10-05T13:14:49.396Z,96024.31
2023-10-05T13:17:17.308Z,96029.41
2023-10-05T13:19:45.683Z,96028.44
2023-10-05T13:22:13.493Z,96029.41
2023-10-05T13:24:42.187Z,96031.91
2023-10-05T13:27:10.187Z,96036.34
2023-10-05T13:29:44.538Z,96030.25
2023-10-05T13:32:13.979Z,96032.06
2023-10-05T13:34:47.162Z,96037.19
2023-10-05T13:37:15.396Z,96036.34
2023-10-05T13:39:46.003Z,96032.88
2023-10-05T13:42:19.677Z,96028.44
2023-10-05T13:44:48.825Z,96036.34
2023-10-05T13:47:16.896Z,96039.94
2023-10-05T13:49:52.402Z,96051.31
2023-10-05T13:52:21.910Z,96047.03
2023-10-05T13:54:50.296Z,96051.47
2023-10-05T13:57:18.018Z,96051.47
2023-10-05T13:59:45.661Z,96052.44
2023-10-05T14:02:14.740Z,96052.63
2023-10-05T14:07:12.468Z,96051.78
2023-10-05T14:09:45.686Z,96051.13
2023-10-05T14:12:13.773Z,96044.06
2023-10-05T14:14:41.474Z,96042.38
2023-10-05T14:17:09.275Z,96038.13
2023-10-05T14:19:38.442Z,96046.19
2023-10-05T14:22:06.255Z,96048.00
2023-10-05T14:24:35.093Z,96041.91
2023-10-05T14:27:06.021Z,96048.97
2023-10-05T14:29:37.393Z,96053.38
2023-10-05T14:32:06.755Z,96056.19
2023-10-05T14:34:35.486Z,96058.97
2023-10-05T14:37:07.076Z,96059.81
2023-10-05T14:39:35.293Z,96054.69
2023-10-05T14:42:05.522Z,96053.88
2023-10-05T14:44:36.472Z,96061.09
2023-10-05T14:47:08.947Z,96063.72
2023-10-05T14:49:36.849Z,96064.72
2023-10-05T14:52:07.145Z,96057.66
2023-10-05T14:54:34.944Z,96054.34
2023-10-05T14:57:02.596Z,96067.50
2023-10-05T14:59:30.303Z,96060.41
2023-10-05T15:01:59.354Z,96053.53
2023-10-05T15:04:27.213Z,96049.22
2023-10-05T15:06:55.747Z,96044.78
2023-10-05T15:09:26.930Z,96041.50
2023-10-05T15:11:54.868Z,96044.13
2023-10-05T15:14:23.369Z,96062.56
2023-10-05T15:16:53.406Z,96048.56
2023-10-05T15:19:21.754Z,96054.81
2023-10-05T15:21:49.886Z,96047.91
2023-10-05T15:24:17.949Z,96035.56
2023-10-05T15:26:49.897Z,96032.09
2023-10-05T15:29:17.977Z,96035.72
2023-10-05T15:31:45.804Z,96055.91
2023-10-05T15:34:13.839Z,96053.28
2023-10-05T15:36:42.031Z,96062.16
2023-10-05T15:39:11.257Z,96056.88
2023-10-05T15:41:39.241Z,96057.88
2023-10-05T15:44:09.144Z,96077.94
2023-10-05T15:46:37.937Z,96077.28
2023-10-05T15:49:06.033Z,96058.84
2023-10-05T15:51:34.114Z,96052.75
2023-10-05T15:54:03.633Z,96066.75
2023-10-05T15:56:31.491Z,96071.19
2023-10-05T15:59:00.423Z,96086.97
2023-10-05T16:01:29.535Z,96076.59
2023-10-05T16:03:58.214Z,96081.03
2023-10-05T16:06:26.956Z,96078.41
2023-10-05T16:08:58.334Z,96074.13
2023-10-05T16:11:26.254Z,96079.41
2023-10-05T16:13:53.880Z,96066.38
2023-10-05T16:16:22.320Z,96074.13
2023-10-05T16:18:51.371Z,96066.38
2023-10-05T16:21:19.557Z,96057.53
2023-10-05T16:23:47.239Z,96098.94
2023-10-05T16:26:14.896Z,96094.50
2023-10-05T16:28:42.591Z,96088.59
2023-10-05T16:31:10.310Z,96092.03
2023-10-05T16:33:38.187Z,96099.09
2023-10-05T16:36:07.846Z,96068.50
2023-10-05T16:38:35.524Z,96057.97
2023-10-05T16:41:03.166Z,96064.06
2023-10-05T16:43:30.840Z,96044.84
2023-10-05T16:45:59.034Z,96065.03
2023-10-05T16:48:27.753Z,96066.84
2023-10-05T16:50:55.445Z,96048.44
2023-10-05T16:53:26.786Z,96037.09
2023-10-05T16:55:54.564Z,96042.38
2023-10-05T16:58:22.377Z,96017.03
2023-10-05T17:00:50.709Z,96010.94
2023-10-05T17:03:19.045Z,96010.94
2023-10-05T17:05:46.812Z,95999.59
2023-10-05T17:08:14.450Z,96000.41
2023-10-05T17:10:43.446Z,95985.63
2023-10-05T17:13:11.112Z,95972.63
2023-10-05T17:15:38.778Z,95980.53
2023-10-05T17:18:07.520Z,95965.53
2023-10-05T17:20:35.194Z,95999.75
2023-10-05T17:23:03.554Z,95994.66
2023-10-05T17:25:33.918Z,96028.69
2023-10-05T17:28:04.578Z,96056.94
2023-10-05T17:30:32.243Z,96068.31
2023-10-05T17:33:00.032Z,96063.88
2023-10-05T17:35:29.346Z,96050.00
2023-10-05T17:37:57.762Z,96050.56
2023-10-05T17:40:25.555Z,96047.66
2023-10-05T17:42:53.732Z,96046.19
2023-10-05T17:45:22.778Z,96045.81
2023-10-05T17:47:52.323Z,96035.94
2023-10-05T17:50:19.994Z,96041.66
2023-10-05T17:52:47.914Z,96031.56
2023-10-05T17:55:15.987Z,96034.34
2023-10-05T17:57:43.906Z,96052.09
2023-10-05T18:00:16.730Z,96062.13
2023-10-05T18:02:48.216Z,96076.22
2023-10-05T18:05:17.248Z,96078.38
2023-10-05T18:07:45.317Z,96095.94
2023-10-05T18:10:13.151Z,96107.47
2023-10-05T18:12:40.884Z,96107.59
2023-10-05T18:15:09.483Z,96102.50
2023-10-05T18:17:37.472Z,96103.34
2023-10-05T18:20:08.421Z,96099.88
2023-10-05T18:22:36.121Z,96095.56
2023-10-05T18:25:04.234Z,96090.31
2023-10-05T18:27:32.062Z,96081.63
2023-10-05T18:29:59.686Z,96084.38
2023-10-05T18:32:27.436Z,96079.13
2023-10-05T18:34:55.303Z,96079.13
2023-10-05T18:37:24.406Z,96081.91
2023-10-05T18:39:52.085Z,96087.47
2023-10-05T18:42:19.918Z,96080.56
2023-10-05T18:44:48.175Z,96086.00
2023-10-05T18:47:15.957Z,96093.19
2023-10-05T18:49:43.616Z,96095.81
2023-10-05T18:52:11.558Z,96087.13
2023-10-05T18:54:40.674Z,96080.88
2023-10-05T18:57:08.673Z,96082.66
2023-10-05T18:59:36.317Z,96084.50
2023-10-05T19:02:04.246Z,96091.56
2023-10-05T19:04:33.396Z,96083.81
2023-10-05T19:07:01.121Z,96092.69
2023-10-05T19:09:28.785Z,96093.69
2023-10-05T19:11:58.014Z,96102.53
2023-10-05T19:14:25.653Z,96106.94
2023-10-05T19:16:53.805Z,96107.94
2023-10-05T19:19:21.820Z,96093.13
2023-10-05T19:21:49.721Z,96108.91
2023-10-05T19:24:17.462Z,96101.19
2023-10-05T19:26:49.152Z,96113.50
2023-10-05T19:29:18.384Z,96122.22
2023-10-05T19:31:46.424Z,96124.03
2023-10-05T19:34:14.170Z,96115.28
2023-10-05T19:36:41.828Z,96125.00
2023-10-05T19:39:11.765Z,96133.03
2023-10-05T19:41:39.672Z,96135.66
2023-10-05T19:44:07.931Z,96135.81
2023-10-05T19:46:37.642Z,96133.03
2023-10-05T19:49:07.558Z,96135.66
2023-10-05T19:51:35.557Z,96133.03
2023-10-05T19:54:03.727Z,96137.47
2023-10-05T19:56:37.509Z,96134.03
2023-10-05T19:59:05.938Z,96147.97
2023-10-05T20:01:33.797Z,96150.09
2023-10-05T20:04:03.148Z,96146.78
2023-10-05T20:06:31.529Z,96151.88
2023-10-05T20:08:59.721Z,96157.97
2023-10-05T20:11:27.820Z,96153.69
2023-10-05T20:13:56.038Z,96159.94
2023-10-05T20:16:24.021Z,96156.31
2023-10-05T20:18:52.108Z,96158.94
2023-10-05T20:21:22.409Z,96160.78
2023-10-05T20:23:50.156Z,96165.19
2023-10-05T20:26:21.670Z,96169.63
2023-10-05T20:28:49.604Z,96162.72
2023-10-05T20:31:17.385Z,96175.72
2023-10-05T20:33:48.016Z,96177.66
2023-10-05T20:36:17.923Z,96181.13
2023-10-05T20:38:47.046Z,96183.75
2023-10-05T20:41:15.279Z,96194.41
2023-10-05T20:43:43.301Z,96190.28
2023-10-05T20:46:12.016Z,96189.31
2023-10-05T20:48:40.184Z,96189.47
2023-10-05T20:51:08.604Z,96189.59
2023-10-05T20:53:36.400Z,96180.91
2023-10-05T20:56:11.725Z,96179.22
2023-10-05T20:58:39.507Z,96182.84
2023-10-05T21:01:07.531Z,96185.50
2023-10-05T21:03:36.199Z,96186.28
2023-10-05T21:06:05.740Z,96188.13
2023-10-05T21:08:34.478Z,96180.06
2023-10-05T21:11:03.365Z,96186.16
2023-10-05T21:13:35.147Z,96187.13
2023-10-05T21:16:03.505Z,96183.53
2023-10-05T21:18:32.265Z,96172.19
2023-10-05T21:21:00.245Z,96179.22
2023-10-05T21:23:27.918Z,96191.41
2023-10-05T21:25:55.622Z,96181.88
2023-10-05T21:28:23.297Z,96180.91
2023-10-05T21:30:52.352Z,96181.72
2023-10-05T21:33:20.257Z,96185.31
2023-10-05T21:35:48.459Z,96173.97
2023-10-05T21:38:16.115Z,96181.19
2023-10-05T21:40:44.049Z,96173.31
2023-10-05T21:43:11.787Z,96173.31
2023-10-05T21:45:39.489Z,96183.81
2023-10-05T21:48:08.755Z,96182.16
2023-10-05T21:50:36.498Z,96181.47
2023-10-05T21:53:05.431Z,96175.25
2023-10-05T21:55:33.381Z,96184.78
2023-10-05T21:58:01.260Z,96190.03
2023-10-05T22:00:49.431Z,96185.63
2023-10-05T22:03:18.580Z,96182.16
2023-10-05T22:05:47.234Z,96176.09
2023-10-05T22:08:16.462Z,96177.06
2023-10-05T22:10:45.848Z,96179.69
2023-10-05T22:13:15.606Z,96182.31
2023-10-05T22:15:43.758Z,96182.31
2023-10-05T22:18:12.847Z,96181.47
2023-10-05T22:20:42.234Z,96187.56
2023-10-05T22:23:11.160Z,96186.59
2023-10-05T22:26:03.519Z,96186.72
2023-10-05T22:28:35.585Z,96182.31
2023-10-05T22:31:32.190Z,96188.56
2023-10-05T22:34:04.958Z,96184.09
2023-10-05T22:36:58.907Z,96177.06
2023-10-05T22:40:09.389Z,96179.00
2023-10-05T22:46:20.763Z,96179.16
2023-10-05T22:49:35.712Z,96178.19
2023-10-05T22:52:14.525Z,96186.88
2023-10-05T22:54:54.521Z,96176.38
2023-10-05T22:57:30.230Z,96180.81
2023-10-05T23:02:57.308Z,96187.50
2023-10-05T23:05:28.990Z,96181.25
2023-10-05T23:08:16.906Z,96168.94
2023-10-05T23:10:47.796Z,96172.41
2023-10-05T23:13:19.501Z,96177.50
2023-10-05T23:15:52.498Z,96170.59
2023-10-05T23:18:25.862Z,96184.53
2023-10-05T23:20:57.838Z,96197.00
2023-10-05T23:23:30.583Z,96197.19
2023-10-05T23:26:01.127Z,96199.13
2023-10-05T23:28:31.838Z,96193.03
2023-10-05T23:31:10.891Z,96199.28
2023-10-05T23:33:42.864Z,96198.44
2023-10-05T23:36:17.320Z,96195.81
2023-10-05T23:38:59.660Z,96198.28
2023-10-05T23:41:29.527Z,96204.22
2023-10-05T23:43:58.903Z,96200.75
2023-10-05T23:46:29.360Z,96204.22
2023-10-05T23:52:37.553Z,96204.22
2023-10-05T23:55:57.016Z,96201.75
2023-10-05T23:59:12.933Z,96207.00
